Terminal Aerodrome Forecast
Issued by NWS

Home | Current Version | Previous Version | Text Only | Print | Product List | Glossary On
Versions: 1 2 3 4 5 6 7 8 9 10 11 12 13 14 15
896
FTUS45 KRIW 162321
TAFCPR
TAF
KCPR 162321Z 1700/1724 23008KT P6SM SCT070
     FM171400 23012KT P6SM FEW150
     FM171900 27012KT P6SM SCT150=

USA.gov is the U.S. government's official web portal to all federal, state and local government web resources and services.